Flight Track Log - Related Links

Times and Time Zones

All times are in EDT time to prevent confusion due to time zone crossing. See the BWA480 flight status page for this flight to view local times or setup timezone preferences in your user account.

Time Position Orientation Groundspeed Altitude Reporting Facility
EDT Latitude Longitude Course Direction KTS MPH feet Rate Location/Type
Sat 12:42:23 PM 10.5950 -61.3470 217° Southwest 26 30  Level FlightAware ADS-B
Sat 12:42:45 PM 10.5950 -61.3480 270° West 32 37 131 Level FlightAware ADS-B
Sat 12:43:17 PM 10.5950 -61.3500 270° West 31 36 149 Level FlightAware ADS-B
Sat 12:43:46 PM 10.5950 -61.3520 270° West 32 37 186 Level FlightAware ADS-B
Sat 12:44:58 PM 10.5950 -61.3450 90° East 115 132 240 Level FlightAware ADS-B
Sat 12:45:26 PM 10.5950 -61.3250 90° East 172 198 400 1,535 Climbing FlightAware ADS-B
Sat 12:45:41 PM 10.5960 -61.3120 86° East 172 198 1,100 2,045 Climbing FlightAware ADS-B
Sat 12:46:10 PM 10.5970 -61.2880 88° East 198 228 1,900 1,412 Climbing FlightAware ADS-B
Sat 12:46:32 PM 10.5970 -61.2660 90° East 227 261 2,300 1,902 Climbing FlightAware ADS-B
Sat 12:46:51 PM 10.5990 -61.2460 84° East 227 261 3,200 2,800 Climbing FlightAware ADS-B
Sat 12:47:02 PM 10.6040 -61.2340 67° East 236 272 3,700 2,526 Climbing FlightAware ADS-B
Sat 12:47:10 PM 10.6100 -61.2280 45° Northeast 239 275 4,000 2,500 Climbing FlightAware ADS-B
Sat 12:47:26 PM 10.6260 -61.2220 20° North 246 283 4,700 2,786 Climbing FlightAware ADS-B
Sat 12:47:38 PM 10.6400 -61.2230 356° North 247 284 5,300 2,750 Climbing FlightAware ADS-B
Sat 12:47:50 PM 10.6530 -61.2290 336° Northwest 250 288 5,800 1,826 Climbing FlightAware ADS-B
Sat 12:48:24 PM 10.6880 -61.2510 328° Northwest 286 329 6,700 2,143 Climbing FlightAware ADS-B
Sat 12:48:46 PM 10.7160 -61.2650 334° Northwest 291 335 7,800 2,739 Climbing FlightAware ADS-B
Sat 12:49:10 PM 10.7460 -61.2750 342° North 298 343 8,800 2,684 Climbing FlightAware ADS-B
Sat 12:49:24 PM 10.7650 -61.2830 338° Northwest 302 348 9,500 2,143 Climbing FlightAware ADS-B
Sat 12:50:06 PM 10.8160 -61.3160 328° Northwest 333 383 10,800 1,683 Climbing FlightAware ADS-B
Sat 12:50:46 PM 10.8710 -61.3530 327° Northwest 368 423 11,800 1,814 Climbing FlightAware ADS-B
Sat 12:51:32 PM 10.9390 -61.3980 327° Northwest 388 447 13,400 2,250 Climbing FlightAware ADS-B
Sat 12:52:14 PM 11.0040 -61.4410 327° Northwest 394 453 15,100 2,415 Climbing FlightAware ADS-B
Sat 12:52:54 PM 11.0650 -61.4810 327° Northwest 395 455 16,700 2,195 Climbing FlightAware ADS-B
Sat 12:53:36 PM 11.1290 -61.5240 327° Northwest 405 466 18,100 2,488 Climbing FlightAware ADS-B
Sat 12:54:16 PM 11.1910 -61.5650 327° Northwest 389 448 20,100 2,415 Climbing FlightAware ADS-B
Sat 12:54:58 PM 11.2530 -61.6060 327° Northwest 392 451 21,400 1,841 Climbing FlightAware ADS-B
Sat 12:55:44 PM 11.3260 -61.6540 327° Northwest 398 458 22,800 1,705 Climbing FlightAware ADS-B
Sat 12:56:26 PM 11.3920 -61.6980 327° Northwest 408 470 23,900 1,538 Climbing FlightAware ADS-B
Sat 12:57:02 PM 11.4490 -61.7350 328° Northwest 411 473 24,800 1,537 Climbing FlightAware ADS-B
Sat 12:57:48 PM 11.5220 -61.7840 327° Northwest 416 479 26,000 1,364 Climbing FlightAware ADS-B
Sat 12:58:30 PM 11.5910 -61.8300 327° Northwest 424 488 26,800 1,116 Climbing FlightAware ADS-B
Sat 12:59:14 PM 11.6660 -61.8790 327° Northwest 436 502 27,600 1,071 Climbing FlightAware ADS-B
Sat 12:59:54 PM 11.7340 -61.9240 327° Northwest 444 511 28,300 1,077 Climbing FlightAware ADS-B
Sat 01:00:32 PM 11.8000 -61.9690 326° Northwest 448 516 29,000 1,171 Climbing FlightAware ADS-B
Sat 01:01:16 PM 11.8760 -62.0190 327° Northwest 451 519 29,900 1,213 Climbing FlightAware ADS-B
Sat 01:02:01 PM 11.9530 -62.0710 327° Northwest 453 521 30,800 1,116 Climbing FlightAware ADS-B
Sat 01:02:42 PM 12.0290 -62.1210 327° Northwest 458 527 31,500 909 Climbing FlightAware ADS-B
Sat 01:03:40 PM 12.1330 -62.1900 327° Northwest 466 536 32,300 1,041 Climbing FlightAware ADS-B
Sat 01:04:20 PM 12.2040 -62.2380 327° Northwest 461 531 33,200 1,244 Climbing FlightAware ADS-B
Sat 01:05:02 PM 12.2790 -62.2870 327° Northwest 456 525 34,000 571 Climbing FlightAware ADS-B
Sat 01:05:44 PM 12.3520 -62.3370 326° Northwest 455 524 34,000  Level FlightAware ADS-B
Sat 01:06:26 PM 12.4270 -62.3870 327° Northwest 454 522 34,000  Level FlightAware ADS-B
Sat 01:07:07 PM 12.4980 -62.4350 327° Northwest 454 522 34,000  Level FlightAware ADS-B
Sat 01:08:00 PM 12.5850 -62.4940 327° Northwest 454 522 34,000  Level FlightAware ADS-B
Sat 01:08:36 PM 12.6390 -62.5310 326° Northwest 454 522 34,000  Level FlightAware ADS-B
Sat 01:09:34 PM 12.7120 -62.5780 328° Northwest 456 525 34,000  Level FlightAware ADS-B
Sat 01:10:20 PM 12.7810 -62.6240 327° Northwest 455 524 34,000  Level FlightAware ADS-B
Sat 01:11:31 PM 12.9000 -62.7050 326° Northwest 455 524 34,000  Level FlightAware ADS-B
Sat 01:12:11 PM 12.9900 -62.7650 327° Northwest 456 525 34,000  Level FlightAware ADS-B
Sat 01:12:57 PM 13.0580 -62.8130 325° Northwest 456 525 34,000  Level FlightAware ADS-B
Sat 01:13:57 PM 13.1470 -62.8750 326° Northwest 456 525 34,000  Level FlightAware ADS-B
Sat 01:14:34 PM 13.2020 -62.9130 326° Northwest 456 525 34,000  Level FlightAware ADS-B
Sat 01:15:08 PM 13.2530 -62.9480 326° Northwest 456 525 34,000  Level FlightAware ADS-B
Sat 01:15:53 PM 13.3940 -63.0380 328° Northwest 459 528 34,000  Level FlightAware ADS-B
Sat 01:16:38 PM 13.4650 -63.0870 326° Northwest 458 527 34,000  Level FlightAware ADS-B
Sat 01:17:14 PM 13.5190 -63.1240 326° Northwest 458 527 34,000  Level FlightAware ADS-B
Sat 01:17:51 PM 13.5740 -63.1630 325° Northwest 458 527 34,000  Level FlightAware ADS-B
Sat 01:18:28 PM 13.6300 -63.2010 327° Northwest 458 527 34,000  Level FlightAware ADS-B
Sat 01:19:14 PM 13.6980 -63.2490 326° Northwest 458 527 34,000  Level FlightAware ADS-B
Sat 01:20:14 PM 13.7880 -63.3110 326° Northwest 458 527 34,000  Level FlightAware ADS-B
Sat 01:20:51 PM 13.8430 -63.3490 326° Northwest 458 527 34,000  Level FlightAware ADS-B
Sat 01:21:38 PM 13.9130 -63.3980 326° Northwest 458 527 34,000  Level FlightAware ADS-B
Sat 01:22:14 PM 13.9670 -63.4350 326° Northwest 458 527 34,000  Level FlightAware ADS-B
Sat 01:22:49 PM 14.0190 -63.4720 325° Northwest 458 527 34,000  Level FlightAware ADS-B
Sat 01:23:37 PM 14.0910 -63.5220 326° Northwest 458 527 34,000  Level FlightAware ADS-B
Sat 01:24:39 PM 14.1840 -63.5860 326° Northwest 458 527 34,000  Level FlightAware ADS-B
Sat 01:25:15 PM 14.2370 -63.6230 326° Northwest 458 527 34,000  Level FlightAware ADS-B
Sat 01:26:03 PM 14.3090 -63.6730 326° Northwest 458 527 34,000  Level FlightAware ADS-B
Sat 01:28:00 PM 14.5058 -63.8038 327° Northwest  Level FlightAware Approximate
Sat 01:29:00 PM 14.6067 -63.8709 327° Northwest  Level FlightAware Approximate
Sat 01:30:00 PM 14.7076 -63.9381 327° Northwest  Level FlightAware Approximate
Sat 01:31:00 PM 14.8085 -64.0054 327° Northwest  Level FlightAware Approximate
Sat 01:32:00 PM 14.9094 -64.0728 327° Northwest  Level FlightAware Approximate
Sat 01:33:00 PM 15.0086 -64.1419 316° Northwest  Level FlightAware Approximate
Sat 01:34:00 PM 15.0980 -64.2247 320° Northwest  Level FlightAware Approximate
Sat 01:35:00 PM 15.1902 -64.3043 320° Northwest  Level FlightAware Approximate
Sat 01:35:46 PM 15.4667 -64.5500 321° Northwest 620 713 34,000  Level San Juan Center
Sat 01:36:00 PM 15.2810 -64.3827 320° Northwest  Level FlightAware Approximate
Sat 01:36:46 PM 15.5667 -64.6333 321° Northwest 480 552 34,000  Level San Juan Center
Sat 01:37:00 PM 15.3717 -64.4611 320° Northwest  Level FlightAware Approximate
Sat 01:37:47 PM 15.6667 -64.7000 327° Northwest 440 506 34,000  Level San Juan Center
Sat 01:38:00 PM 15.4633 -64.5385 321° Northwest  Level FlightAware Approximate
Sat 01:39:00 PM 15.5558 -64.6149 321° Northwest  Level FlightAware Approximate
Sat 01:40:00 PM 15.6482 -64.6914 321° Northwest  Level FlightAware Approximate
Sat 01:41:00 PM 15.7405 -64.7680 321° Northwest  Level FlightAware Approximate
Sat 01:43:45 PM 16.2560 -65.1930 327° Northwest 452 520 34,000  Level FlightAware ADS-B
Sat 01:44:44 PM 16.3500 -65.2720 321° Northwest 450 518 34,000  Level FlightAware ADS-B
Sat 01:45:52 PM 16.4610 -65.3660 321° Northwest 447 514 34,000  Level FlightAware ADS-B
Sat 01:46:37 PM 16.5350 -65.4280 321° Northwest 448 516 34,000 71 Level FlightAware ADS-B
Sat 01:47:17 PM 16.5990 -65.4830 321° Northwest 456 525 34,100 750 Climbing FlightAware ADS-B
Sat 01:48:13 PM 16.6910 -65.5610 321° Northwest 450 518 35,200 1,133 Climbing FlightAware ADS-B
Sat 01:48:47 PM 16.7450 -65.6070 321° Northwest 449 517 35,800 593 Climbing FlightAware ADS-B
Sat 01:49:34 PM 16.8220 -65.6720 321° Northwest 449 517 36,000 145 Climbing FlightAware ADS-B
Sat 01:50:10 PM 16.8780 -65.7200 321° Northwest 449 517 36,000  Level FlightAware ADS-B
Sat 01:50:56 PM 16.9540 -65.7840 321° Northwest 447 514 36,000  Level FlightAware ADS-B
Sat 01:51:31 PM 17.0090 -65.8310 321° Northwest 447 514 36,000  Level FlightAware ADS-B
Sat 01:52:11 PM 17.0720 -65.8840 321° Northwest 446 513 36,000  Level FlightAware ADS-B
Sat 01:53:00 PM 17.1430 -65.9460 320° Northwest 445 512 36,000  Level FlightAware ADS-B
Sat 01:53:50 PM 17.2300 -66.0190 321° Northwest 445 512 36,000  Level FlightAware ADS-B
Sat 01:54:31 PM 17.2960 -66.0760 320° Northwest 445 512 36,000  Level FlightAware ADS-B
Sat 01:55:10 PM 17.3590 -66.1290 321° Northwest 445 512 36,000  Level FlightAware ADS-B
Sat 01:55:39 PM 17.4040 -66.1680 320° Northwest 445 512 36,000  Level FlightAware ADS-B
Sat 01:56:23 PM 17.4750 -66.2280 321° Northwest 445 512 36,000  Level FlightAware ADS-B
Sat 01:57:03 PM 17.5400 -66.2840 321° Northwest 445 512 36,000  Level FlightAware ADS-B
Sat 01:57:35 PM 17.5910 -66.3280 321° Northwest 446 513 36,000  Level FlightAware ADS-B
Sat 01:58:20 PM 17.6630 -66.3900 321° Northwest 446 513 36,000  Level FlightAware ADS-B
Sat 01:59:01 PM 17.7290 -66.4460 321° Northwest 446 513 36,000  Level FlightAware ADS-B
Sat 01:59:41 PM 17.7910 -66.4990 321° Northwest 446 513 36,000  Level FlightAware ADS-B
Sat 02:00:48 PM 17.8780 -66.5740 321° Northwest 446 513 36,000  Level FlightAware ADS-B
Sat 02:01:26 PM 17.9610 -66.6450 321° Northwest 445 512 36,000  Level FlightAware ADS-B
Sat 02:02:06 PM 18.0250 -66.7000 321° Northwest 445 512 36,000  Level FlightAware ADS-B
Sat 02:02:50 PM 18.0950 -66.7610 320° Northwest 444 511 36,000  Level FlightAware ADS-B
Sat 02:03:30 PM 18.1600 -66.8160 321° Northwest 445 512 36,000  Level FlightAware ADS-B
Sat 02:04:10 PM 18.2220 -66.8700 320° Northwest 443 510 36,000  Level FlightAware ADS-B
Sat 02:04:54 PM 18.2920 -66.9310 320° Northwest 442 509 36,000  Level FlightAware ADS-B
Sat 02:05:40 PM 18.3640 -66.9930 321° Northwest 441 507 36,000  Level FlightAware ADS-B
Sat 02:06:18 PM 18.4250 -67.0460 321° Northwest 443 510 36,000  Level FlightAware ADS-B
Sat 02:07:00 PM 18.4910 -67.1030 321° Northwest 442 509 36,000  Level FlightAware ADS-B
Sat 02:07:44 PM 18.5500 -67.1750 311° West 442 509 36,000  Level FlightAware ADS-B
Sat 02:08:27 PM 18.6050 -67.2490 308° West 443 510 36,000  Level FlightAware ADS-B
Sat 02:09:08 PM 18.6560 -67.3160 309° West 444 511 36,000  Level FlightAware ADS-B
Sat 02:09:52 PM 18.7130 -67.3910 309° West 442 509 36,000  Level FlightAware ADS-B
Sat 02:10:24 PM 18.7530 -67.4440 309° West 441 507 36,000  Level FlightAware ADS-B
Sat 02:11:46 PM 18.8570 -67.5820 309° West 438 504 36,000  Level FlightAware ADS-B
Sat 02:12:26 PM 18.9070 -67.6490 308° West 436 502 36,000  Level FlightAware ADS-B
Sat 02:13:10 PM 18.9630 -67.7230 309° West 435 501 36,000  Level FlightAware ADS-B
Sat 02:13:50 PM 19.0130 -67.7880 309° West 434 499 36,000  Level FlightAware ADS-B
Sat 02:14:26 PM 19.0580 -67.8480 308° West 434 499 36,000  Level FlightAware ADS-B
Sat 02:15:10 PM 19.1140 -67.9220 309° West 434 499 36,000  Level FlightAware ADS-B
Sat 02:15:51 PM 19.1650 -67.9900 308° West 434 499 36,000  Level FlightAware ADS-B
Sat 02:16:26 PM 19.2080 -68.0470 309° West 436 502 36,000  Level FlightAware ADS-B
Sat 02:17:07 PM 19.2610 -68.1180 308° West 437 503 36,000  Level FlightAware ADS-B
Sat 02:17:51 PM 19.3160 -68.1910 309° West 437 503 36,000  Level FlightAware ADS-B
Sat 02:18:29 PM 19.3650 -68.2560 309° West 437 503 36,000  Level FlightAware ADS-B
Sat 02:19:13 PM 19.4200 -68.3290 309° West 438 504 36,000  Level FlightAware ADS-B
Sat 02:19:55 PM 19.4700 -68.3970 308° West 439 505 36,000  Level FlightAware ADS-B
Sat 02:20:39 PM 19.5280 -68.4740 309° West 440 506 36,000  Level FlightAware ADS-B
Sat 02:21:10 PM 19.5660 -68.5250 308° West 439 505 36,000  Level FlightAware ADS-B
Sat 02:21:51 PM 19.6180 -68.5970 307° West 438 504 36,000  Level FlightAware ADS-B
Sat 02:22:35 PM 19.6700 -68.6750 305° West 438 504 36,000  Level FlightAware ADS-B
Sat 02:23:09 PM 19.7110 -68.7340 306° West 437 503 36,000  Level FlightAware ADS-B
Sat 02:23:51 PM 19.7600 -68.8070 306° West 437 503 36,000  Level FlightAware ADS-B
Sat 02:24:35 PM 19.8100 -68.8810 306° West 436 502 36,000  Level FlightAware ADS-B
Sat 02:25:11 PM 19.8550 -68.9460 306° West 436 502 36,000  Level FlightAware ADS-B
Sat 02:25:48 PM 19.8960 -69.0060 306° West 439 505 36,000  Level FlightAware ADS-B
Sat 02:26:31 PM 19.9490 -69.0850 306° West 440 506 36,000  Level FlightAware ADS-B
Sat 02:27:28 PM 20.0110 -69.1780 305° West 440 506 36,000  Level FlightAware ADS-B
Sat 02:28:04 PM 20.0470 -69.2320 305° West 440 506 36,000  Level FlightAware ADS-B
Sat 02:28:53 PM 20.0960 -69.3060 305° West 440 506 36,000  Level FlightAware ADS-B
Sat 02:29:30 PM 20.1320 -69.3620 304° West 440 506 36,000  Level FlightAware ADS-B
Sat 02:30:20 PM 20.1820 -69.4370 305° West 440 506 36,000  Level FlightAware ADS-B
Sat 02:30:56 PM 20.2180 -69.4920 305° West 440 506 36,000  Level FlightAware ADS-B
Sat 02:31:44 PM 20.2650 -69.5640 305° West 440 506 36,000  Level FlightAware ADS-B
Sat 02:32:20 PM 20.3010 -69.6180 305° West 440 506 36,000  Level FlightAware ADS-B
Sat 02:32:58 PM 20.3390 -69.6760 305° West 440 506 36,000  Level FlightAware ADS-B
Sat 02:33:34 PM 20.3740 -69.7300 305° West 440 506 36,000  Level FlightAware ADS-B
Sat 02:34:11 PM 20.4110 -69.7860 305° West 440 506 36,000  Level FlightAware ADS-B
Sat 02:34:59 PM 20.4590 -69.8590 305° West 440 506 36,000  Level FlightAware ADS-B
Sat 02:35:35 PM 20.4950 -69.9130 305° West 440 506 36,000  Level FlightAware ADS-B
Sat 02:36:23 PM 20.5420 -69.9860 305° West 440 506 36,000  Level FlightAware ADS-B
Sat 02:36:59 PM 20.5780 -70.0400 305° West 440 506 36,000  Level FlightAware ADS-B
Sat 02:38:18 PM 20.7825 -70.3569 305° West 448 516 36,000  Level Miami Center
Sat 02:39:18 PM 20.8514 -70.4622 305° West 448 516 36,000  Level Miami Center
Sat 02:40:18 PM 20.9206 -70.5722 304° West 448 516 36,000  Level Miami Center
Sat 02:41:18 PM 20.9917 -70.6778 306° West 448 516 36,000  Level Miami Center
Sat 02:42:18 PM 21.0625 -70.7856 305° West 448 516 36,000  Level Miami Center
Sat 02:43:18 PM 21.1314 -70.8958 304° West 448 516 36,000  Level Miami Center
Sat 02:44:18 PM 21.2003 -71.0017 305° West 448 516 36,000  Level Miami Center
Sat 02:45:18 PM 21.2669 -71.1100 303° West 448 516 36,000  Level Miami Center
Sat 02:46:18 PM 21.3308 -71.2075 305° West 448 516 36,000  Level Miami Center
Sat 02:47:18 PM 21.4019 -71.3203 304° West 453 521 36,000  Level Miami Center
Sat 02:48:18 PM 21.4744 -71.4242 307° West 448 516 36,000  Level Miami Center
Sat 02:49:18 PM 21.5406 -71.5286 304° West 436 502 36,000  Level Miami Center
Sat 02:50:18 PM 21.6067 -71.6308 305° West 430 495 36,000  Level Miami Center
Sat 02:51:18 PM 21.6750 -71.7353 305° West 430 495 36,000  Level Miami Center
Sat 02:52:18 PM 21.7431 -71.8397 305° West 430 495 36,000  Level Miami Center
Sat 02:53:18 PM 21.8089 -71.9422 305° West 430 495 36,000  Level Miami Center
Sat 02:54:18 PM 21.8728 -72.0472 303° West 430 495 36,000  Level Miami Center
Sat 02:55:18 PM 21.9408 -72.1522 305° West 430 495 36,000  Level Miami Center
Sat 02:56:18 PM 22.0067 -72.2572 304° West 430 495 36,000  Level Miami Center
Sat 02:57:18 PM 22.0725 -72.3625 304° West 430 495 36,000  Level Miami Center
Sat 02:58:18 PM 22.1403 -72.4678 305° West 430 495 36,000  Level Miami Center
Sat 02:59:18 PM 22.2081 -72.5753 304° West 430 495 36,000  Level Miami Center
Sat 03:00:18 PM 22.2778 -72.6806 306° West 430 495 36,000  Level Miami Center
Sat 03:01:18 PM 22.3433 -72.7908 303° West 435 501 36,000  Level Miami Center
Sat 03:02:18 PM 22.4217 -72.9050 307° West 435 501 36,000  Level Miami Center
Sat 03:03:18 PM 22.4869 -73.0133 303° West 435 501 36,000  Level Miami Center
Sat 03:04:18 PM 22.5544 -73.1214 304° West 435 501 36,000  Level Miami Center
Sat 03:05:18 PM 22.6175 -73.2297 302° West 430 495 36,000  Level Miami Center
Sat 03:06:18 PM 22.6828 -73.3383 303° West 430 495 36,000  Level Miami Center
Sat 03:07:18 PM 22.7542 -73.4422 307° West 430 495 36,000  Level Miami Center
Sat 03:08:18 PM 22.8192 -73.5508 303° West 435 501 36,000  Level Miami Center
Sat 03:09:18 PM 22.8906 -73.6594 306° West 435 501 36,000  Level Miami Center
Sat 03:10:18 PM 22.9594 -73.7661 305° West 435 501 36,000  Level Miami Center
Sat 03:11:18 PM 23.0244 -73.8772 302° West 435 501 36,000  Level Miami Center
Sat 03:12:18 PM 23.0914 -73.9864 304° West 435 501 36,000  Level Miami Center
Sat 03:13:18 PM 23.1603 -74.0956 304° West 435 501 36,000  Level Miami Center
Sat 03:14:18 PM 23.2250 -74.2072 302° West 435 501 36,000  Level Miami Center
Sat 03:15:18 PM 23.2958 -74.3164 305° West 435 501 36,000  Level Miami Center
Sat 03:16:18 PM 23.3625 -74.4306 302° West 441 507 36,000  Level Miami Center
Sat 03:17:18 PM 23.4311 -74.5378 305° West 441 507 36,000  Level Miami Center
Sat 03:18:18 PM 23.4994 -74.6500 304° West 441 507 36,000  Level Miami Center
Sat 03:19:18 PM 23.5700 -74.7619 305° West 441 507 36,000  Level Miami Center
Sat 03:20:18 PM 23.6344 -74.8744 302° West 441 507 36,000  Level Miami Center
Sat 03:21:18 PM 23.7025 -74.9844 304° West 441 507 36,000  Level Miami Center
Sat 03:22:18 PM 23.7708 -75.0947 304° West 441 507 36,000  Level Miami Center
Sat 03:23:18 PM 23.8411 -75.2072 304° West 441 507 36,000  Level Miami Center
Sat 03:24:18 PM 23.9072 -75.3222 302° West 441 507 36,000  Level Miami Center
Sat 03:25:18 PM 23.9772 -75.4375 304° West 446 513 36,000  Level Miami Center
Sat 03:26:18 PM 24.0431 -75.5506 303° West 451 519 36,000  Level Miami Center
Sat 03:27:18 PM 24.1108 -75.6636 303° West 451 519 36,000  Level Miami Center
Sat 03:28:18 PM 24.1786 -75.7792 303° West 451 519 36,000  Level Miami Center
Sat 03:29:18 PM 24.2464 -75.8925 303° West 451 519 36,000  Level Miami Center
Sat 03:30:18 PM 24.3117 -76.0058 302° West 451 519 36,000  Level Miami Center
Sat 03:31:18 PM 24.3792 -76.1219 303° West 451 519 36,000  Level Miami Center
Sat 03:32:18 PM 24.4489 -76.2333 305° West 451 519 36,000 -400 Level Miami Center
Sat 03:33:18 PM 24.5119 -76.3472 301° West 446 513 35,200 -850 Descending Miami Center
Sat 03:34:18 PM 24.5811 -76.4636 303° West 446 513 34,300 -600 Descending Miami Center
Sat 03:35:18 PM 24.6483 -76.5800 302° West 451 519 34,000 -150 Descending Miami Center
Sat 03:36:18 PM 24.7175 -76.6964 303° West 451 519 34,000  Level Miami Center
Sat 03:37:18 PM 24.7844 -76.8131 302° West 451 519 34,000  Level Miami Center
Sat 03:38:18 PM 24.8533 -76.9297 303° West 451 519 34,000  Level Miami Center
Sat 03:39:18 PM 24.9244 -77.0514 303° West 451 519 34,000  Level Miami Center
Sat 03:40:18 PM 24.9933 -77.1661 304° West 451 519 34,000  Level Miami Center
Sat 03:41:18 PM 25.0639 -77.2808 304° West 451 519 34,000  Level Miami Center
Sat 03:42:18 PM 25.1347 -77.4075 302° West 464 534 34,000  Level Miami Center
Sat 03:43:18 PM 25.1989 -77.5181 303° West 476 548 34,000  Level Miami Center
Sat 03:44:18 PM 25.2631 -77.6378 301° West 471 542 34,000  Level Miami Center
Sat 03:45:18 PM 25.3294 -77.7578 301° West 466 536 34,000  Level Miami Center
Sat 03:46:18 PM 25.3975 -77.8756 303° West 461 531 34,000 -1,050 Level Miami Center
Sat 03:47:18 PM 25.4447 -78.0072 292° West 456 525 31,900 -2,102 Descending Miami Center
Sat 03:52:52 PM 25.6540 -78.7490 292° West 416 479 20,200 -2,090 Descending FlightAware ADS-B
Sat 03:53:37 PM 25.6940 -78.8300 299° West 406 467 18,700 -1,714 Descending FlightAware ADS-B
Sat 03:54:09 PM 25.7240 -78.8890 299° West 388 447 18,000 -600 Descending FlightAware ADS-B
Sat 03:54:47 PM 25.7550 -78.9530 298° West 365 420 18,000  Level FlightAware ADS-B
Sat 03:55:33 PM 25.7530 -79.0330 268° West 355 409 18,000  Level FlightAware ADS-B
Sat 03:56:09 PM 25.7380 -79.0980 256° West 352 405 18,000  Level FlightAware ADS-B
Sat 03:56:52 PM 25.7210 -79.1730 256° West 332 382 18,000  Level FlightAware ADS-B
Sat 03:57:17 PM 25.7120 -79.2110 255° West 306 352 18,000  Level FlightAware ADS-B
Sat 03:57:57 PM 25.7000 -79.2700 257° West 291 335 18,000  Level FlightAware ADS-B
Sat 03:58:30 PM 25.7220 -79.3130 300° West 295 339 18,000  Level FlightAware ADS-B
Sat 03:58:51 PM 25.7480 -79.3210 345° North 301 346 18,000  Level FlightAware ADS-B
Sat 03:59:27 PM 25.7900 -79.2960 28° Northeast 304 350 18,000  Level FlightAware ADS-B
Sat 03:59:39 PM 25.7970 -79.2770 68° East 303 349 18,000  Level FlightAware ADS-B
Sat 04:00:09 PM 25.7880 -79.2320 103° East 300 345 18,000  Level FlightAware ADS-B
Sat 04:00:49 PM 25.7620 -79.1790 119° Southeast 298 343 18,000 -632 Level FlightAware ADS-B
Sat 04:01:25 PM 25.7380 -79.1300 119° Southeast 298 343 17,200 -1,263 Descending FlightAware ADS-B
Sat 04:02:05 PM 25.7110 -79.0780 120° Southeast 292 336 16,400 -1,071 Descending FlightAware ADS-B
Sat 04:02:21 PM 25.6950 -79.0630 140° Southeast 279 321 16,200 -1,000 Descending FlightAware ADS-B
Sat 04:02:35 PM 25.6780 -79.0570 162° South 276 318 15,900 -450 Descending FlightAware ADS-B
Sat 04:03:01 PM 25.6450 -79.0640 191° South 277 319 15,900  Level FlightAware ADS-B
Sat 04:03:13 PM 25.6320 -79.0740 215° Southwest 277 319 15,900 194 Level FlightAware ADS-B
Sat 04:03:32 PM 25.6200 -79.0980 241° Southwest 280 322 16,000  Climbing FlightAware ADS-B
Sat 04:03:45 PM 25.6190 -79.1150 266° West 282 325 15,900 -207 Descending FlightAware ADS-B
Sat 04:04:01 PM 25.6240 -79.1370 284° West 285 328 15,900 -214 Level FlightAware ADS-B
Sat 04:04:41 PM 25.6230 -79.1920 269° West 273 314 15,700 -692 Descending FlightAware ADS-B
Sat 04:04:53 PM 25.6120 -79.2030 222° Southwest 275 316 15,300 -1,846 Descending FlightAware ADS-B
Sat 04:05:33 PM 25.5670 -79.2310 209° Southwest 282 325 14,100 -1,135 Descending FlightAware ADS-B
Sat 04:06:07 PM 25.5450 -79.2660 235° Southwest 282 325 13,900 -764 Descending FlightAware ADS-B
Sat 04:06:28 PM 25.5750 -79.3000 314° West 267 307 13,400 -1,091 Descending FlightAware ADS-B
Sat 04:07:02 PM 25.6030 -79.3340 312° West 259 298 12,900 -1,301 Descending FlightAware ADS-B
Sat 04:07:51 PM 25.6420 -79.3830 311° West 260 299 11,600 -1,481 Descending FlightAware ADS-B
Sat 04:08:23 PM 25.6680 -79.4140 313° West 252 290 10,900 -1,672 Descending FlightAware ADS-B
Sat 04:08:52 PM 25.6910 -79.4430 311° West 265 305 9,900 -1,957 Descending FlightAware ADS-B
Sat 04:09:09 PM 25.7050 -79.4590 314° West 266 306 9,400 -1,636 Descending FlightAware ADS-B
Sat 04:09:36 PM 25.7280 -79.4870 312° West 263 303 8,700 -1,500 Descending FlightAware ADS-B
Sat 04:09:57 PM 25.7440 -79.5070 312° West 259 298 8,200 -1,538 Descending FlightAware ADS-B
Sat 04:10:15 PM 25.7590 -79.5250 313° West 256 295 7,700 -1,532 Descending FlightAware ADS-B
Sat 04:10:44 PM 25.7830 -79.5530 314° West 249 287 7,000 -1,086 Descending FlightAware ADS-B
Sat 04:12:11 PM 25.8360 -79.6380 305° West 230 265 5,600 -991 Descending FlightAware ADS-B
Sat 04:12:39 PM 25.8490 -79.6680 296° West 230 265 5,100 -1,102 Descending FlightAware ADS-B
Sat 04:13:00 PM 25.8580 -79.6910 294° West 227 261 4,700 -1,043 Descending FlightAware ADS-B
Sat 04:13:25 PM 25.8690 -79.7170 295° West 229 264 4,300 -973 Descending FlightAware ADS-B
Sat 04:13:37 PM 25.8740 -79.7290 295° West 229 264 4,100 -600 Descending FlightAware ADS-B
Sat 04:14:05 PM 25.8860 -79.7600 293° West 226 260 3,900 -222 Descending FlightAware ADS-B
Sat 04:14:31 PM 25.8980 -79.7880 295° West 226 260 3,900 67 Level FlightAware ADS-B
Sat 04:15:35 PM 25.9170 -79.8360 294° West 225 259 4,000 -261 Climbing FlightAware ADS-B
Sat 04:16:03 PM 25.9360 -79.8820 295° West 205 236 3,500 -1,038 Descending FlightAware ADS-B
Sat 04:16:27 PM 25.9430 -79.9070 287° West 199 229 3,100 -900 Descending FlightAware ADS-B
Sat 04:16:43 PM 25.9450 -79.9220 278° West 199 229 2,900 -273 Descending FlightAware ADS-B
Sat 04:17:11 PM 25.9480 -79.9510 277° West 200 230 2,900 -667 Level FlightAware ADS-B
Sat 04:17:37 PM 25.9510 -79.9780 277° West 205 236 2,300 -1,200 Descending FlightAware ADS-B
Sat 04:18:01 PM 25.9550 -80.0040 280° West 206 237 1,900 -500 Descending FlightAware ADS-B
Sat 04:18:25 PM 25.9570 -80.0280 275° West 203 234 1,900  Level FlightAware ADS-B
Sat 04:18:53 PM 25.9610 -80.0560 279° West 190 219 1,900  Level FlightAware ADS-B
Sat 04:19:22 PM 25.9640 -80.0840 277° West 184 212 1,900  Level FlightAware ADS-B
Sat 04:19:37 PM 25.9660 -80.0980 279° West 185 213 1,900  Level FlightAware ADS-B
Sat 04:20:01 PM 25.9690 -80.1210 278° West 185 213 1,900 133 Level FlightAware ADS-B
Sat 04:20:22 PM 25.9710 -80.1390 277° West 187 215 2,000  Climbing FlightAware ADS-B
Sat 04:20:55 PM 25.9650 -80.1720 259° West 190 219 1,900 -105 Descending FlightAware ADS-B
Sat 04:21:19 PM 25.9620 -80.1950 262° West 192 221 1,900  Level FlightAware ADS-B
Sat 04:21:35 PM 25.9660 -80.2110 286° West 195 224 1,900  Level FlightAware ADS-B
Sat 04:21:59 PM 25.9750 -80.2310 297° West 196 226 1,900  Level FlightAware ADS-B
Sat 04:22:33 PM 25.9870 -80.2600 295° West 195 224 1,900 -197 Level FlightAware ADS-B
Sat 04:24:01 PM 26.0370 -80.2310 28° Northeast 162 186 1,500 -353 Descending FlightAware ADS-B
Sat 04:24:15 PM 26.0370 -80.2200 90° East 157 181 1,300 -800 Descending FlightAware ADS-B
Sat 04:24:46 PM 26.0370 -80.1960 90° East 161 185 900 -774 Descending FlightAware ADS-B
Sat 04:25:17 PM 26.0360 -80.1700 92° East 166 191 500 -774 Descending FlightAware ADS-B
Sat 04:25:53 PM 26.0360 -80.1400 90° East 159 183 -833 Descending FlightAware ADS-B
Sat 04:26:21 PM 26.0360 -80.1200 90° East 159 183  Level FlightAware ADS-B
Sat 04:28:16 PM 26.0350 -80.1260 259° West 17 20  Level FlightAware ADS-B
Sat 04:32:00 PM 26.0726 -80.1527 90° East  Level Estimated

Login

Don't have an account? Register now (free) for customized features, flight alerts, and more!